Time;durP1;ratioP1;P1;durP2;ratioP2;P2;SDS_P1;SDS_P2;PMS_P1;PMS_P2;Temp;Humidity;BMP_temperature;BMP_pressure;BME280_temperature;BME280_humidity;BME280_pressure;Samples;Min_cycle;Max_cycle;Signal;HPM_P1;HPM_P2
2021/03/15 00:02:20;;;;;;;40.63;22.17;;;;;;;11.09;55.94;93395.88;5011789;28;20177;-71
2021/03/15 00:04:46;;;;;;;40.77;21.80;;;;;;;11.23;56.25;93411.16;5011257;28;20644;-70
2021/03/15 00:07:11;;;;;;;45.67;24.30;;;;;;;11.11;56.72;93400.84;5011633;28;20292;-71
2021/03/15 00:09:37;;;;;;;42.63;23.03;;;;;;;10.73;57.43;93400.50;5011604;28;20169;-71
2021/03/15 00:12:02;;;;;;;39.50;22.27;;;;;;;10.94;57.16;93396.28;5011424;28;20284;-71
2021/03/15 00:14:28;;;;;;;43.27;22.13;;;;;;;10.75;58.67;93400.09;5011602;28;20169;-70
2021/03/15 00:16:53;;;;;;;45.90;22.80;;;;;;;10.78;57.88;93394.78;5011344;28;20636;-70
2021/03/15 00:19:19;;;;;;;44.80;22.33;;;;;;;10.92;57.06;93383.31;5012905;28;20169;-71
2021/03/15 00:21:44;;;;;;;46.23;23.50;;;;;;;11.02;56.52;93390.56;5015232;28;20205;-70
2021/03/15 00:24:10;;;;;;;47.37;23.57;;;;;;;11.09;56.70;93382.53;5013770;28;20247;-71
2021/03/15 00:26:36;;;;;;;45.00;24.30;;;;;;;10.90;56.86;93395.53;5015131;28;20200;-70
2021/03/15 00:29:01;;;;;;;47.33;23.87;;;;;;;11.02;56.42;93395.91;5015223;28;20177;-70
2021/03/15 00:31:27;;;;;;;42.17;23.73;;;;;;;11.21;55.61;93401.97;5015076;28;20207;-71
2021/03/15 00:33:52;;;;;;;47.30;24.30;;;;;;;10.82;56.70;93390.19;4997091;28;20276;-70
2021/03/15 00:36:18;;;;;;;49.57;24.60;;;;;;;10.86;56.94;93363.47;5015157;28;20165;-70
2021/03/15 00:38:44;;;;;;;47.67;24.63;;;;;;;11.18;56.18;93373.38;5015121;28;20173;-75
2021/03/15 00:41:09;;;;;;;40.93;22.73;;;;;;;10.73;57.44;93351.69;5015127;28;20780;-71
2021/03/15 00:43:35;;;;;;;47.23;23.57;;;;;;;10.69;58.07;93359.69;5014818;28;20205;-71
2021/03/15 00:46:00;;;;;;;43.67;24.23;;;;;;;10.13;59.59;93371.81;5013859;28;20185;-71
2021/03/15 00:48:26;;;;;;;46.33;23.23;;;;;;;10.41;59.66;93365.78;5014783;28;20176;-71
2021/03/15 00:50:51;;;;;;;39.93;22.33;;;;;;;10.71;58.37;93354.72;5014842;28;20614;-71
2021/03/15 00:53:17;;;;;;;45.47;23.90;;;;;;;10.55;59.30;93339.09;5014483;28;20220;-73
2021/03/15 00:55:42;;;;;;;43.73;23.03;;;;;;;10.72;59.25;93342.13;5014782;28;20279;-71
2021/03/15 00:58:08;;;;;;;36.40;22.07;;;;;;;10.88;59.24;93355.84;5015061;28;20180;-70
2021/03/15 01:00:35;;;;;;;48.03;22.33;;;;;;;10.36;60.84;93346.72;5014567;28;20256;-73
2021/03/15 01:03:00;;;;;;;41.50;21.90;;;;;;;10.62;59.95;93341.00;5014678;28;20640;-71
2021/03/15 01:05:28;;;;;;;40.73;21.73;;;;;;;10.65;60.69;93331.47;5014401;28;20416;-71
2021/03/15 01:07:54;;;;;;;39.40;21.60;;;;;;;10.93;59.20;93339.44;5014579;28;20240;-71
2021/03/15 01:10:22;;;;;;;48.20;24.73;;;;;;;11.08;58.25;93324.91;5014497;28;20537;-71
2021/03/15 01:12:48;;;;;;;42.30;23.23;;;;;;;10.79;59.32;93294.09;5014703;28;20185;-70
2021/03/15 01:15:13;;;;;;;38.33;22.03;;;;;;;10.88;59.24;93299.00;5014226;28;20969;-71
2021/03/15 01:17:39;;;;;;;46.17;22.33;;;;;;;10.85;59.28;93317.31;5014532;28;20184;-71
2021/03/15 01:20:08;;;;;;;41.83;23.00;;;;;;;10.50;59.79;93320.81;5014129;28;20610;-70
2021/03/15 01:22:33;;;;;;;44.07;22.70;;;;;;;10.54;59.94;93307.44;5013111;28;20189;-71
2021/03/15 01:24:59;;;;;;;39.43;21.87;;;;;;;10.80;59.03;93291.03;5014519;28;20865;-71
2021/03/15 01:27:24;;;;;;;44.27;23.17;;;;;;;11.06;58.66;93283.72;5014071;28;20227;-70
2021/03/15 01:29:50;;;;;;;41.63;22.17;;;;;;;11.24;57.91;93303.13;5013670;28;20165;-71
2021/03/15 01:32:15;;;;;;;36.57;21.37;;;;;;;11.24;57.55;93279.06;5012799;28;20177;-71
2021/03/15 01:34:41;;;;;;;35.87;19.70;;;;;;;10.82;58.96;93279.94;5014116;28;20266;-72
2021/03/15 01:37:06;;;;;;;43.37;21.57;;;;;;;10.70;60.01;93275.78;5013712;28;20174;-70
2021/03/15 01:39:32;;;;;;;35.20;20.33;;;;;;;10.56;61.13;93284.56;5012882;28;20165;-70
2021/03/15 01:41:58;;;;;;;39.07;21.33;;;;;;;10.41;61.33;93280.38;5013972;28;20200;-71
2021/03/15 01:44:24;;;;;;;32.73;19.70;;;;;;;10.73;59.58;93256.34;5014032;28;20180;-71
2021/03/15 01:46:49;;;;;;;43.47;21.13;;;;;;;10.66;60.05;93253.66;5013671;28;20452;-71
2021/03/15 01:49:15;;;;;;;37.73;19.80;;;;;;;10.56;60.48;93267.81;5013559;28;20555;-69
2021/03/15 01:51:40;;;;;;;35.33;20.27;;;;;;;10.51;59.99;93252.94;5013364;28;20177;-71
2021/03/15 01:54:07;;;;;;;35.90;20.50;;;;;;;10.59;60.22;93243.00;5011716;28;20308;-71
2021/03/15 01:56:32;;;;;;;40.23;20.87;;;;;;;10.83;60.32;93236.06;5013647;28;20185;-71
2021/03/15 01:58:58;;;;;;;41.07;22.13;;;;;;;10.92;61.87;93225.00;5012165;28;20435;-71
2021/03/15 02:01:23;;;;;;;42.23;21.27;;;;;;;10.43;63.15;93231.97;5012424;28;20177;-71
2021/03/15 02:03:49;;;;;;;45.67;20.93;;;;;;;10.29;63.23;93244.19;5012190;28;20640;-71
2021/03/15 02:06:14;;;;;;;40.93;22.07;;;;;;;10.27;62.74;93243.06;5012274;28;20271;-71
2021/03/15 02:08:40;;;;;;;42.37;22.93;;;;;;;10.44;63.24;93201.50;5013087;28;20181;-70
2021/03/15 02:11:11;;;;;;;37.97;21.13;;;;;;;10.56;63.72;93219.78;5013467;28;20181;-71
2021/03/15 02:13:39;;;;;;;41.17;22.30;;;;;;;10.41;63.81;93237.69;4996304;28;20319;-72
2021/03/15 02:16:11;;;;;;;38.07;20.40;;;;;;;10.36;63.14;93243.41;5013316;28;20412;-70
2021/03/15 02:18:51;;;;;;;32.70;18.80;;;;;;;10.12;63.29;93226.25;5011954;28;20464;-72
2021/03/15 02:21:33;;;;;;;33.83;19.50;;;;;;;10.66;62.40;93216.28;5012039;28;20897;-72
2021/03/15 02:24:04;;;;;;;37.37;20.47;;;;;;;10.58;62.98;93209.47;4996479;28;20518;-71
2021/03/15 02:26:39;;;;;;;33.60;19.07;;;;;;;10.53;63.68;93209.84;5011825;28;20870;-71
2021/03/15 02:29:31;;;;;;;34.43;20.50;;;;;;;10.38;62.83;93213.69;5012902;28;20914;-71
2021/03/15 02:32:34;;;;;;;35.77;19.67;;;;;;;10.31;62.86;93212.53;5012708;28;20408;-72
2021/03/15 02:35:05;;;;;;;36.10;20.47;;;;;;;10.68;62.26;93202.56;5013040;28;20423;-71
2021/03/15 02:37:36;;;;;;;31.60;19.07;;;;;;;10.86;61.51;93197.94;5011607;28;20431;-71
2021/03/15 02:40:06;;;;;;;33.27;18.53;;;;;;;10.37;63.20;93190.81;4995869;28;20885;-75
2021/03/15 02:42:31;;;;;;;33.63;18.40;;;;;;;10.64;62.50;93186.56;5010778;28;20439;-71
2021/03/15 02:44:57;;;;;;;30.37;17.73;;;;;;;10.85;62.23;93191.84;5011720;28;20923;-71
2021/03/15 02:47:25;;;;;;;30.43;17.93;;;;;;;10.67;62.39;93185.03;5011327;28;20212;-71
2021/03/15 02:49:54;;;;;;;33.30;18.07;;;;;;;10.65;61.42;93188.06;5012677;28;20205;-71
2021/03/15 02:52:19;;;;;;;33.20;19.53;;;;;;;10.59;62.67;93185.03;5012255;28;20442;-70
2021/03/15 02:54:46;;;;;;;33.53;18.17;;;;;;;10.81;62.13;93191.06;4995289;28;20938;-70
2021/03/15 02:57:11;;;;;;;32.93;18.77;;;;;;;10.55;63.19;93180.84;5011158;28;20180;-72
2021/03/15 02:59:37;;;;;;;29.63;18.37;;;;;;;10.41;63.18;93176.34;5011191;28;20428;-71
2021/03/15 03:02:03;;;;;;;34.97;19.37;;;;;;;10.76;62.50;93167.44;4995126;28;20177;-70
2021/03/15 03:04:28;;;;;;;38.53;19.17;;;;;;;10.58;63.06;93161.41;5011288;28;20581;-71
2021/03/15 03:06:54;;;;;;;32.07;19.77;;;;;;;10.29;65.02;93156.16;5011470;28;20208;-71
2021/03/15 03:09:19;;;;;;;38.57;20.43;;;;;;;10.64;63.42;93162.53;5011025;28;20177;-70
2021/03/15 03:11:46;;;;;;;35.20;20.33;;;;;;;10.38;64.74;93168.31;5011038;28;20865;-70
2021/03/15 03:14:12;;;;;;;35.20;19.27;;;;;;;10.26;64.70;93158.81;5010969;28;20275;-71
2021/03/15 03:16:40;;;;;;;38.27;19.90;;;;;;;10.37;64.76;93164.13;5011122;28;20602;-70
2021/03/15 03:19:08;;;;;;;34.23;20.17;;;;;;;10.72;62.85;93176.63;5012131;28;20231;-71
2021/03/15 03:21:34;;;;;;;33.77;19.37;;;;;;;10.77;62.34;93155.63;5011105;28;20448;-70
2021/03/15 03:24:00;;;;;;;34.53;19.43;;;;;;;10.73;63.10;93152.22;5010836;28;20490;-70
2021/03/15 03:26:27;;;;;;;34.50;19.70;;;;;;;10.24;64.99;93167.22;5010738;28;20683;-76
2021/03/15 03:28:53;;;;;;;35.13;20.00;;;;;;;10.40;64.59;93155.38;5010789;28;20180;-70
2021/03/15 03:31:19;;;;;;;33.47;18.83;;;;;;;10.66;64.35;93154.13;5010980;28;20482;-70
2021/03/15 03:33:45;;;;;;;33.30;18.90;;;;;;;10.74;63.25;93161.00;5010836;28;20426;-71
2021/03/15 03:36:10;;;;;;;37.00;19.53;;;;;;;10.66;63.18;93133.53;5011403;28;20428;-70
2021/03/15 03:38:36;;;;;;;40.73;20.47;;;;;;;10.33;64.48;93153.50;5011972;28;20173;-70
2021/03/15 03:41:01;;;;;;;34.73;19.87;;;;;;;10.66;64.15;93136.22;5011515;28;20180;-70
2021/03/15 03:43:27;;;;;;;36.20;20.13;;;;;;;10.24;66.42;93137.13;5011787;28;20263;-71
2021/03/15 03:45:52;;;;;;;35.10;20.30;;;;;;;10.16;66.25;93151.59;5011580;28;20537;-70
2021/03/15 03:48:18;;;;;;;38.53;19.40;;;;;;;10.55;65.34;93122.94;5011634;28;20243;-70
2021/03/15 03:50:43;;;;;;;37.07;20.87;;;;;;;10.50;65.02;93119.91;5011463;28;20184;-70
2021/03/15 03:53:15;;;;;;;30.00;18.07;;;;;;;10.30;65.71;93124.91;5010293;28;20220;-70
2021/03/15 03:55:47;;;;;;;34.80;20.80;;;;;;;10.32;66.29;93118.06;5011508;28;20173;-71
2021/03/15 03:58:14;;;;;;;40.27;21.07;;;;;;;10.56;65.69;93113.78;4995039;28;20420;-70
2021/03/15 04:00:40;;;;;;;39.40;19.23;;;;;;;10.50;66.28;93101.97;5010141;28;20455;-71
2021/03/15 04:03:18;;;;;;;32.93;19.17;;;;;;;10.17;66.70;93113.88;5011650;28;20416;-70
2021/03/15 04:05:51;;;;;;;32.87;20.23;;;;;;;10.57;64.52;93114.53;5009976;28;20177;-70
2021/03/15 04:08:27;;;;;;;36.47;20.07;;;;;;;10.33;65.20;93082.22;4994038;28;20586;-70
2021/03/15 04:10:53;;;;;;;35.37;18.53;;;;;;;10.52;64.74;93073.00;5010199;28;20447;-70
2021/03/15 04:13:22;;;;;;;35.07;19.37;;;;;;;10.47;65.57;93091.31;4993975;28;20510;-70
2021/03/15 04:15:48;;;;;;;28.83;17.83;;;;;;;10.53;64.84;93068.41;5011180;28;20181;-70
2021/03/15 04:18:14;;;;;;;34.23;17.47;;;;;;;10.53;65.32;93095.09;5009958;28;20435;-70
2021/03/15 04:20:42;;;;;;;31.53;18.80;;;;;;;10.18;65.79;93079.94;5011417;28;20230;-70
2021/03/15 04:23:12;;;;;;;36.03;19.83;;;;;;;10.53;64.83;93081.75;5010208;28;20934;-76
2021/03/15 04:25:39;;;;;;;33.63;19.40;;;;;;;10.01;66.78;93092.19;5010457;28;20879;-70
2021/03/15 04:28:05;;;;;;;37.47;20.03;;;;;;;9.75;67.80;93098.69;5009932;28;21043;-74
2021/03/15 04:30:31;;;;;;;36.87;20.63;;;;;;;10.04;67.25;93075.41;5011472;28;20441;-71
2021/03/15 04:32:56;;;;;;;26.50;17.40;;;;;;;10.26;66.63;93076.88;5011238;28;20450;-70
2021/03/15 04:35:32;;;;;;;35.13;19.47;;;;;;;10.12;66.47;93076.16;5010157;28;20556;-76
2021/03/15 04:37:58;;;;;;;31.67;19.13;;;;;;;9.98;66.92;93072.38;5011134;28;20227;-76
2021/03/15 04:40:26;;;;;;;35.17;19.73;;;;;;;9.72;67.77;93062.91;5010299;28;20798;-71
2021/03/15 04:42:52;;;;;;;35.27;19.23;;;;;;;10.04;67.60;93070.06;5009964;28;20427;-71
2021/03/15 04:45:18;;;;;;;35.00;19.63;;;;;;;10.34;66.67;93061.63;5010107;28;20842;-76
2021/03/15 04:47:44;;;;;;;36.47;19.37;;;;;;;10.26;66.77;93062.78;5009820;28;20201;-71
2021/03/15 04:50:11;;;;;;;34.93;20.30;;;;;;;9.97;66.76;93056.75;5010033;28;20810;-76
2021/03/15 04:52:37;;;;;;;36.60;19.23;;;;;;;9.98;67.20;93064.38;5010678;28;20232;-76
2021/03/15 04:55:03;;;;;;;31.43;19.93;;;;;;;10.03;66.17;93047.22;5009998;28;20415;-73
2021/03/15 04:57:28;;;;;;;34.40;19.37;;;;;;;10.28;66.14;93058.59;5009928;28;20223;-71
2021/03/15 04:59:54;;;;;;;33.73;19.27;;;;;;;10.29;66.19;93049.44;5009792;28;20424;-78
2021/03/15 05:02:20;;;;;;;35.53;19.57;;;;;;;10.50;65.75;93064.63;5010126;28;20185;-72
2021/03/15 05:04:45;;;;;;;37.80;20.73;;;;;;;10.64;65.10;93050.44;5010242;28;20643;-71
2021/03/15 05:07:11;;;;;;;35.27;19.70;;;;;;;10.28;66.56;93060.53;5013404;28;20474;-77
2021/03/15 05:09:36;;;;;;;36.37;19.20;;;;;;;10.12;67.17;93054.81;5013214;28;20180;-76
2021/03/15 05:12:02;;;;;;;31.60;17.93;;;;;;;10.00;67.47;93056.00;5013404;28;20173;-77
2021/03/15 05:14:27;;;;;;;34.83;19.10;;;;;;;9.71;68.02;93049.97;5013107;28;20644;-76
2021/03/15 05:16:53;;;;;;;30.77;18.60;;;;;;;10.12;66.67;93057.50;5013199;28;20173;-73
2021/03/15 05:19:18;;;;;;;32.50;18.40;;;;;;;10.42;64.79;93051.69;5012971;28;20184;-74
2021/03/15 05:21:44;;;;;;;34.30;20.43;;;;;;;10.17;65.64;93049.09;5013048;28;20255;-76
2021/03/15 05:24:09;;;;;;;33.83;19.70;;;;;;;10.32;65.75;93032.69;5013016;28;20177;-77
2021/03/15 05:26:38;;;;;;;32.50;19.07;;;;;;;10.48;65.51;93044.78;5012283;28;20224;-76
2021/03/15 05:29:03;;;;;;;28.00;17.17;;;;;;;10.37;64.65;93055.50;5012627;28;20169;-76
2021/03/15 05:31:29;;;;;;;33.70;18.47;;;;;;;10.25;64.63;93029.28;5012239;28;20498;-77
2021/03/15 05:33:54;;;;;;;32.23;17.43;;;;;;;10.62;63.80;93043.97;5012553;28;20173;-78
2021/03/15 05:36:20;;;;;;;29.90;18.70;;;;;;;10.66;64.81;93052.72;5012273;28;20173;-77
2021/03/15 05:38:45;;;;;;;24.67;15.43;;;;;;;10.63;63.79;93043.59;5012809;28;20180;-79
2021/03/15 05:41:12;;;;;;;28.50;17.50;;;;;;;10.69;63.23;93052.69;5012029;28;20177;-76
2021/03/15 05:43:46;;;;;;;24.40;15.80;;;;;;;10.45;64.54;93034.91;5013663;28;20219;-77
2021/03/15 05:46:30;;;;;;;31.53;18.53;;;;;;;10.43;64.94;93035.28;5013585;28;20424;-75
2021/03/15 05:49:14;;;;;;;32.13;18.50;;;;;;;10.70;64.68;93024.84;5013909;28;20458;-72
2021/03/15 05:52:16;;;;;;;27.70;16.80;;;;;;;10.66;64.92;93032.13;5013594;28;20420;-72
2021/03/15 05:55:00;;;;;;;27.97;16.13;;;;;;;10.38;64.96;93034.94;5013556;28;20454;-79
2021/03/15 05:57:40;;;;;;;25.17;15.93;;;;;;;10.66;63.38;93042.03;5012445;28;20432;-76
2021/03/15 06:00:33;;;;;;;28.47;16.20;;;;;;;10.77;63.23;93030.16;5013509;28;21005;-77
2021/03/15 06:03:08;;;;;;;26.10;16.63;;;;;;;10.78;62.89;93039.69;5013424;28;20942;-73
2021/03/15 06:05:35;;;;;;;29.00;16.40;;;;;;;10.75;62.39;93029.03;5013560;28;20419;-74
2021/03/15 06:08:07;;;;;;;24.60;15.40;;;;;;;10.98;62.17;93039.94;5013713;28;20463;-73
2021/03/15 06:10:36;;;;;;;28.63;16.23;;;;;;;10.93;62.78;93039.59;5012286;28;20834;-74
2021/03/15 06:13:05;;;;;;;27.13;16.13;;;;;;;10.69;64.16;93039.34;5013103;28;20416;-71
2021/03/15 06:15:38;;;;;;;33.90;18.30;;;;;;;10.52;64.52;93040.22;5012066;28;20443;-73
2021/03/15 06:18:04;;;;;;;31.07;17.30;;;;;;;10.66;64.90;93036.69;4995584;28;20447;-74
2021/03/15 06:20:30;;;;;;;31.53;18.80;;;;;;;10.36;65.72;93029.97;5013266;28;20511;-72
2021/03/15 06:22:56;;;;;;;31.27;19.10;;;;;;;10.60;65.34;93052.34;4995210;28;20976;-76
2021/03/15 06:25:22;;;;;;;32.70;18.30;;;;;;;10.73;64.02;93042.00;4988571;28;20435;-76
2021/03/15 06:27:47;;;;;;;31.53;18.97;;;;;;;11.03;63.45;93047.53;5010523;28;20220;-75
2021/03/15 06:30:13;;;;;;;33.40;19.07;;;;;;;10.97;63.58;93035.75;5008804;28;20193;-76
2021/03/15 06:32:39;;;;;;;31.00;18.77;;;;;;;10.96;64.05;93036.91;5012052;28;20850;-75
2021/03/15 06:35:05;;;;;;;34.77;20.43;;;;;;;11.05;64.06;93023.09;5011387;28;20440;-78
2021/03/15 06:37:31;;;;;;;28.40;17.57;;;;;;;11.21;63.07;93036.72;5012730;28;20675;-74
2021/03/15 06:39:56;;;;;;;30.37;17.57;;;;;;;10.78;64.01;93042.38;5012435;28;20424;-76
2021/03/15 06:42:23;;;;;;;26.83;17.67;;;;;;;10.99;63.11;93043.38;4995078;28;20184;-76
2021/03/15 06:44:49;;;;;;;29.17;17.00;;;;;;;11.21;62.56;93043.97;4995395;28;20164;-76
2021/03/15 06:47:14;;;;;;;28.13;17.27;;;;;;;10.98;63.83;93029.25;5010065;28;20455;-71
2021/03/15 06:49:40;;;;;;;25.93;16.60;;;;;;;11.23;62.77;93033.69;5010800;28;20207;-70
2021/03/15 06:52:07;;;;;;;32.93;18.43;;;;;;;11.32;62.28;93032.06;4994713;28;20166;-71
2021/03/15 06:54:32;;;;;;;32.47;17.93;;;;;;;11.17;63.30;93032.56;5010898;28;20193;-72
2021/03/15 06:57:18;;;;;;;29.80;17.27;;;;;;;11.26;63.03;93033.63;5012037;28;20779;-73
2021/03/15 07:00:02;;;;;;;32.60;17.83;;;;;;;11.10;63.55;93033.38;5008679;28;20627;-71
2021/03/15 07:02:29;;;;;;;28.90;17.70;;;;;;;11.41;63.15;93030.84;5010298;28;20478;-70
2021/03/15 07:05:06;;;;;;;38.70;19.33;;;;;;;11.54;62.77;93021.19;5008883;28;20455;-73
2021/03/15 07:07:32;;;;;;;29.83;17.80;;;;;;;11.39;63.19;93013.31;5007960;28;20530;-73
2021/03/15 07:09:57;;;;;;;30.37;18.23;;;;;;;11.53;62.92;93030.38;5008311;28;20440;-74
2021/03/15 07:12:24;;;;;;;28.73;17.07;;;;;;;11.44;62.49;93006.75;5010710;28;20180;-72
2021/03/15 07:14:50;;;;;;;29.47;17.40;;;;;;;11.67;62.14;93019.53;5011831;28;20177;-74
2021/03/15 07:17:27;;;;;;;32.13;16.73;;;;;;;11.73;61.79;93017.97;5009594;28;20428;-72
2021/03/15 07:19:53;;;;;;;30.37;17.43;;;;;;;11.73;61.34;93014.50;5011593;28;20303;-72
2021/03/15 07:22:19;;;;;;;30.43;17.37;;;;;;;11.40;62.42;93003.38;5011524;28;20450;-72
2021/03/15 07:24:45;;;;;;;33.97;17.70;;;;;;;11.63;62.82;93008.13;5012092;28;20422;-71
2021/03/15 07:27:10;;;;;;;26.73;16.57;;;;;;;11.60;62.82;93009.66;5010001;28;20460;-70
2021/03/15 07:29:36;;;;;;;28.37;15.60;;;;;;;11.54;62.15;92986.44;5011648;28;20574;-73
2021/03/15 07:32:01;;;;;;;27.30;16.73;;;;;;;11.54;63.15;92997.13;5010915;28;20193;-72
2021/03/15 07:34:27;;;;;;;25.33;16.53;;;;;;;11.66;62.95;93000.06;5011762;28;20196;-72
2021/03/15 07:36:54;;;;;;;33.70;17.60;;;;;;;11.79;62.82;92986.22;5010032;28;20639;-75
2021/03/15 07:39:20;;;;;;;28.97;17.90;;;;;;;11.75;62.28;92988.91;5007215;28;20268;-76
2021/03/15 07:41:52;;;;;;;30.70;17.27;;;;;;;11.86;62.20;92992.25;5003966;28;20424;-75
2021/03/15 07:44:32;;;;;;;30.23;16.03;;;;;;;11.72;62.06;92976.31;5010012;28;20436;-75
2021/03/15 07:46:59;;;;;;;27.67;15.43;;;;;;;11.76;62.03;92990.41;5011088;28;20470;-72
2021/03/15 07:49:27;;;;;;;28.13;16.23;;;;;;;11.59;62.76;92991.34;5008430;28;20451;-74
2021/03/15 07:51:54;;;;;;;32.80;17.33;;;;;;;11.73;61.81;92985.88;5011293;28;20419;-75
2021/03/15 07:54:23;;;;;;;29.37;17.20;;;;;;;11.77;61.92;92969.78;5006790;28;20542;-75
2021/03/15 07:56:50;;;;;;;27.20;16.13;;;;;;;11.98;61.28;92982.97;5005072;28;20887;-74
2021/03/15 07:59:16;;;;;;;33.70;18.90;;;;;;;12.09;60.39;92972.91;5009511;28;20431;-75
2021/03/15 08:01:41;;;;;;;27.70;17.77;;;;;;;12.13;60.15;92972.88;5011237;28;20486;-73
2021/03/15 08:04:07;;;;;;;26.03;16.03;;;;;;;12.10;59.98;92968.31;5010084;28;20561;-72
2021/03/15 08:06:33;;;;;;;28.57;17.13;;;;;;;12.05;59.93;92958.03;5011392;28;20243;-73
2021/03/15 08:08:58;;;;;;;30.50;17.57;;;;;;;12.10;60.63;92954.94;5006863;28;21550;-72
2021/03/15 08:11:24;;;;;;;26.83;16.33;;;;;;;11.89;60.66;92935.28;5006766;28;20199;-72
2021/03/15 08:13:50;;;;;;;27.23;16.43;;;;;;;12.06;60.98;92949.59;4990605;28;20617;-72
2021/03/15 08:16:22;;;;;;;25.63;16.63;;;;;;;12.17;60.05;92947.56;5006305;28;20583;-75
2021/03/15 08:18:49;;;;;;;25.87;15.63;;;;;;;12.04;60.61;92949.25;5006246;28;20447;-73
2021/03/15 08:21:21;;;;;;;29.30;16.13;;;;;;;12.16;60.88;92948.72;5007535;28;20424;-72
2021/03/15 08:23:46;;;;;;;32.70;15.97;;;;;;;12.23;59.83;92947.13;5009318;28;20432;-72
2021/03/15 08:26:13;;;;;;;28.23;15.77;;;;;;;12.28;59.12;92944.75;5009936;28;20420;-71
2021/03/15 08:28:40;;;;;;;25.37;15.53;;;;;;;12.39;58.87;92950.72;4991449;28;20251;-75
2021/03/15 08:31:14;;;;;;;22.33;15.10;;;;;;;12.14;58.85;92947.63;4991740;28;20424;-72
2021/03/15 08:33:39;;;;;;;28.03;16.20;;;;;;;11.97;59.82;92941.31;4991537;28;20421;-76
2021/03/15 08:36:05;;;;;;;26.43;15.33;;;;;;;12.16;59.13;92938.03;4991798;28;20421;-76
2021/03/15 08:38:32;;;;;;;32.60;17.03;;;;;;;12.11;59.70;92935.03;4990420;28;20205;-72
2021/03/15 08:41:07;;;;;;;31.13;14.30;;;;;;;12.18;58.48;92934.97;4994203;28;20201;-76
2021/03/15 08:43:43;;;;;;;24.80;13.57;;;;;;;11.81;58.85;92925.06;4995162;28;20411;-72
2021/03/15 08:46:19;;;;;;;22.87;14.07;;;;;;;11.85;59.09;92926.56;5010401;28;20417;-73
2021/03/15 08:48:44;;;;;;;25.97;14.57;;;;;;;12.11;57.61;92919.75;5009866;28;20902;-71
2021/03/15 08:51:11;;;;;;;24.73;14.33;;;;;;;12.11;57.27;92918.97;4995019;28;20578;-71
2021/03/15 08:53:36;;;;;;;24.20;14.53;;;;;;;11.96;58.10;92915.00;4994815;28;20598;-71
2021/03/15 08:56:31;;;;;;;24.03;13.53;;;;;;;12.16;57.95;92907.84;4995162;28;20511;-72
2021/03/15 08:58:58;;;;;;;27.63;14.53;;;;;;;12.32;56.68;92908.00;4999909;28;20320;-73
2021/03/15 09:01:24;;;;;;;27.07;15.80;;;;;;;11.91;57.42;92882.19;5012675;28;20424;-73
2021/03/15 09:03:53;;;;;;;27.90;14.03;;;;;;;12.24;57.52;92900.50;4996908;28;20432;-73
2021/03/15 09:06:37;;;;;;;25.07;15.10;;;;;;;12.38;58.90;92895.69;5013369;28;20446;-70
2021/03/15 09:09:05;;;;;;;29.37;17.07;;;;;;;12.47;58.40;92884.47;5014535;28;20415;-73
2021/03/15 09:11:33;;;;;;;27.60;15.47;;;;;;;12.70;58.07;92875.72;5014615;28;20949;-72
2021/03/15 09:14:17;;;;;;;24.87;14.83;;;;;;;12.87;58.38;92874.66;5014356;28;20420;-71
2021/03/15 09:16:50;;;;;;;22.47;14.40;;;;;;;13.02;58.12;92871.75;5014490;28;20427;-73
2021/03/15 09:19:16;;;;;;;24.87;15.60;;;;;;;12.83;57.70;92868.59;5012540;28;20439;-73
2021/03/15 09:21:45;;;;;;;27.27;15.60;;;;;;;12.89;57.89;92858.94;5014080;28;20424;-72
2021/03/15 09:24:33;;;;;;;25.33;14.97;;;;;;;13.12;55.63;92847.44;5014087;28;20420;-72
2021/03/15 09:26:58;;;;;;;24.20;14.77;;;;;;;12.85;56.79;92846.75;5014019;28;20451;-73
2021/03/15 09:29:24;;;;;;;27.50;14.63;;;;;;;12.71;56.65;92843.16;5013064;28;20426;-73
2021/03/15 09:32:03;;;;;;;21.87;14.03;;;;;;;12.95;56.65;92841.22;5012921;28;20173;-73
2021/03/15 09:34:28;;;;;;;20.60;13.33;;;;;;;12.93;55.89;92838.22;5013027;28;20176;-73
2021/03/15 09:36:58;;;;;;;24.80;13.87;;;;;;;12.85;55.51;92841.41;5012804;28;20435;-72
2021/03/15 09:39:25;;;;;;;16.63;11.23;;;;;;;12.93;53.54;92838.22;5013784;28;20648;-73
2021/03/15 09:41:51;;;;;;;18.67;11.90;;;;;;;12.95;53.36;92832.44;5013978;28;20431;-72
2021/03/15 09:44:28;;;;;;;18.83;11.30;;;;;;;13.00;53.77;92828.53;5013630;28;20439;-72
2021/03/15 09:46:53;;;;;;;21.37;12.43;;;;;;;13.07;53.71;92831.84;5013786;28;20294;-72
2021/03/15 09:49:51;;;;;;;21.07;12.70;;;;;;;13.09;53.38;92820.72;5013583;28;20515;-72
2021/03/15 09:52:23;;;;;;;27.33;12.47;;;;;;;13.17;53.44;92822.84;4991174;28;20194;-71
2021/03/15 09:54:54;;;;;;;19.60;13.23;;;;;;;13.07;53.25;92796.25;4992133;28;20539;-73
2021/03/15 09:57:20;;;;;;;21.43;12.70;;;;;;;13.18;54.01;92819.00;4991316;28;20436;-73
2021/03/15 09:59:45;;;;;;;20.20;12.00;;;;;;;13.18;53.86;92810.22;4992043;28;20425;-73
2021/03/15 10:02:15;;;;;;;29.23;13.13;;;;;;;13.14;53.96;92809.53;4991575;28;20433;-72
2021/03/15 10:04:40;;;;;;;21.97;13.20;;;;;;;13.14;54.61;92807.63;4991829;28;20672;-73
2021/03/15 10:07:10;;;;;;;23.20;13.13;;;;;;;12.95;54.90;92805.66;4991627;28;20567;-73
2021/03/15 10:09:38;;;;;;;19.63;12.87;;;;;;;12.71;55.16;92786.19;4991603;28;20601;-72
2021/03/15 10:12:06;;;;;;;21.73;13.33;;;;;;;12.80;55.37;92801.72;4991769;28;20431;-73
2021/03/15 10:14:31;;;;;;;25.77;13.90;;;;;;;12.79;55.64;92802.88;4991414;28;20523;-72
2021/03/15 10:16:58;;;;;;;20.63;13.00;;;;;;;12.73;55.93;92797.22;4991610;28;20524;-72
2021/03/15 10:19:33;;;;;;;26.63;14.17;;;;;;;12.43;57.33;92798.88;4991448;28;20704;-72
2021/03/15 10:22:11;;;;;;;24.43;14.10;;;;;;;12.38;58.23;92793.97;4991526;28;20424;-72
2021/03/15 10:24:38;;;;;;;25.73;14.50;;;;;;;12.33;60.23;92778.38;4991571;28;20424;-72
2021/03/15 10:27:04;;;;;;;20.53;12.67;;;;;;;12.23;62.63;92781.97;4995052;28;21002;-72
2021/03/15 10:29:29;;;;;;;22.13;15.07;;;;;;;12.06;65.09;92777.66;5011566;28;20478;-73
2021/03/15 10:31:59;;;;;;;24.90;13.67;;;;;;;12.13;61.92;92777.56;5012988;28;20173;-75
2021/03/15 10:34:25;;;;;;;18.90;12.03;;;;;;;11.99;60.63;92773.16;5012806;28;20200;-73
2021/03/15 10:36:50;;;;;;;27.63;13.83;;;;;;;12.10;60.87;92765.00;5012761;28;20428;-70
2021/03/15 10:39:18;;;;;;;23.13;13.27;;;;;;;12.02;62.22;92755.56;5011680;28;20176;-70
2021/03/15 10:41:43;;;;;;;21.10;12.50;;;;;;;12.22;60.95;92752.97;4995636;28;20624;-70
2021/03/15 10:44:10;;;;;;;24.40;13.23;;;;;;;12.19;63.53;92741.16;5011496;28;20454;-70
2021/03/15 10:46:50;;;;;;;20.70;12.73;;;;;;;12.31;65.15;92739.81;5011516;28;20183;-70
2021/03/15 10:49:28;;;;;;;18.90;11.53;;;;;;;12.40;63.31;92730.13;5012602;28;20443;-71
2021/03/15 10:51:54;;;;;;;23.50;13.17;;;;;;;12.31;65.13;92734.47;5011435;28;20442;-70
2021/03/15 10:54:30;;;;;;;23.60;14.63;;;;;;;12.48;63.90;92722.72;5012243;28;20500;-71
2021/03/15 10:57:14;;;;;;;26.20;14.83;;;;;;;12.47;61.73;92721.19;5011469;28;20584;-70
2021/03/15 10:59:40;;;;;;;28.87;14.87;;;;;;;12.56;62.13;92717.97;5011328;28;20502;-70
2021/03/15 11:02:06;;;;;;;25.80;15.23;;;;;;;12.67;62.98;92713.94;5011895;28;20506;-70
2021/03/15 11:04:36;;;;;;;28.83;14.83;;;;;;;12.80;61.45;92708.00;5010669;28;20548;-71
2021/03/15 11:07:22;;;;;;;28.00;17.07;;;;;;;12.85;61.21;92708.28;5012177;28;20451;-71
2021/03/15 11:10:17;;;;;;;29.47;16.43;;;;;;;12.93;62.68;92703.53;5012041;28;20845;-72
2021/03/15 11:12:45;;;;;;;23.57;14.60;;;;;;;12.99;61.37;92701.88;5010460;28;20848;-70
2021/03/15 11:15:15;;;;;;;28.87;16.20;;;;;;;12.92;62.53;92699.34;5011959;28;20455;-72
2021/03/15 11:17:41;;;;;;;24.00;15.77;;;;;;;12.55;62.67;92701.16;5010214;28;20429;-70
2021/03/15 11:20:09;;;;;;;24.53;15.00;;;;;;;12.47;61.15;92701.72;5010369;28;20435;-70
2021/03/15 11:22:45;;;;;;;22.90;14.50;;;;;;;12.43;61.70;92705.19;5011748;28;20416;-70
2021/03/15 11:25:11;;;;;;;25.27;14.60;;;;;;;12.61;61.28;92696.84;4992351;28;20486;-70